x

West Orca Bay - 8nm Nw Of Hinchinbrook Is , Ak (46060) Wave Buoy

2:50pm - Sun 28th May 2017 All times are AKDT. -8 hours from GMT.

  • Sig Wave height 3.0ft
  • Swell Direction
  • Peak Period 8s
  • Average Period 5s
  • Wind
    20mph, 25mph gusts
  • Sea Temp 45°f
  • Air Temp 45°f
  • Sea Pressure 1015.1mb
  • West Orca Bay - 8nm Nw Of Hinchinbrook  Is , Ak
  • West Orca Bay - 8nm Nw Of Hinchinbrook  Is , Ak

More Historic Weather Station data

Upgrade to MSW Pro to gain access to the past 30 days of data for over 8000 Wavebouys and Weather Stations around the globe.

Join Pro

Comparision Forecast

View Surf forecast
   
Sun 05/28 2:50pm 3ft 8s 5s 20 25 mph 1015.1mb 45f 45f
1:50pm 3ft 7s 5s 13 16 mph 1015.8mb 45f 44f
12:50pm 2.5ft 7s 5s 11 13 mph 1016.2mb 45f 43f
11:50am 2.5ft 7s 5s 13 16 mph 1016.6mb 45f 43f
10:50am 2.5ft 6s 5s 11 13 mph 1017mb 45f 42f
9:50am 2.5ft 8s 5s 16 18 mph 1017.5mb 45f 42f
8:50am 2.5ft 7s 4s 11 13 mph 1017.8mb 45f 42f
7:50am 2.5ft 4s 4s 18 20 mph 1017.9mb 45f 42f
6:50am 3ft 4s 4s 20 25 mph 1018.2mb 45f 43f
5:50am 2.5ft 4s 4s 22 29 mph 1018.3mb 45f 43f
4:50am 2.5ft 4s 4s 18 20 mph 1019.3mb 45f 43f
3:50am 2.5ft 7s 4s 18 22 mph 1019.8mb 45f 43f
2:50am 3ft 7s 4s 20 27 mph 1019.9mb 45f 45f
1:50am 3ft 4s 4s 20 25 mph 1020.3mb 46f 45f
12:50am 3ft 7s 4s 22 29 mph 1020.7mb 46f 45f
Sat 05/27 11:50pm 3ft 6s 4s 18 22 mph 1021.1mb 46f 45f
10:50pm 3ft 4s 4s 22 27 mph 1021.1mb 46f 46f
9:50pm 2.5ft 3s 4s 13 18 mph 1021.8mb 46f 45f
8:50pm 2.5ft 4s 4s 20 25 mph 1021.7mb 46f 45f
7:50pm 2.5ft 4s 4s 18 20 mph 1021.8mb 46f 44f
6:50pm 2.5ft 4s 4s 22 31 mph 1021.9mb 46f 44f
5:50pm 2.5ft 4s 3s 16 20 mph 1022.4mb 46f 44f
4:50pm 2.5ft 4s 3s 16 20 mph 1022.6mb 46f 44f
3:50pm 2.5ft 4s 4s 20 22 mph 1022.5mb 46f 43f
2:50pm 2.5ft 4s 4s 20 25 mph 1022.8mb 46f 43f
1:50pm 2.5ft 4s 4s 20 22 mph 1023mb 46f 43f
12:50pm 2.5ft 4s 3s 20 22 mph 1023mb 46f 42f
11:50am 2ft 4s 3s 20 25 mph 1023mb 46f 41f
10:50am 2.5ft 4s 4s 20 25 mph 1023mb 46f 41f
9:50am 2.5ft 4s 3s 22 25 mph 1022.8mb 46f 41f
8:50am 2ft 4s 3s 18 25 mph 1022.6mb 46f 43f
7:50am  -   -   -  20 25 mph 1022.5mb 46f 43f
6:50am 2ft 3s 3s 16 18 mph 1022.2mb 46f 43f
5:50am 2.5ft 3s 4s 13 18 mph 1022.2mb 46f 42f
4:50am 1.6ft 3s 3s 16 18 mph 1022.2mb 46f 43f
3:50am 1.3ft 15s 3s 18 20 mph 1022mb 46f 44f
2:50am 1ft 8s 4s 13 18 mph 1022.4mb 46f 44f
1:50am 1ft 8s 4s 9 13 mph 1022.3mb 46f 44f
12:50am 1.3ft 7s 4s 4 7 mph 1022.6mb 46f 45f
Fri 05/26 11:50pm 1.3ft 9s 3s 7 9 mph 1022.6mb 46f 45f
10:50pm 1.3ft 9s 4s 9 11 mph 1022.6mb 46f 45f
9:50pm 1.6ft 9s 4s 11 13 mph 1022.4mb 46f 45f
8:50pm 1.6ft 8s 4s 9 11 mph 1022.3mb 46f 45f
7:50pm 1.6ft 7s 4s 9 11 mph 1022.3mb 46f 46f
6:50pm 1.6ft 4s 4s 11 13 mph 1022.5mb 46f 46f
5:50pm 1.6ft 3s 3s 4 7 mph 1022.7mb 47f 46f
4:50pm 1.3ft 10s 4s 4 7 mph 1022.5mb 46f 46f
3:50pm 1.3ft 7s 4s 9 11 mph 1022.3mb 46f 45f
2:50pm 1.6ft 3s 3s 13 16 mph 1022.1mb 46f 45f
1:50pm 2ft 8s 4s 16 18 mph 1022mb 46f 45f
12:50pm 1.6ft 3s 3s 13 16 mph 1022mb 46f 45f
11:50am 1.3ft 7s 4s 13 16 mph 1021.9mb 46f 45f
10:50am 1.6ft 3s 4s 4 4 mph 1021.7mb 46f 45f
9:50am 2ft 7s 4s 11 16 mph 1021.5mb 46f 45f
8:50am 1.6ft 7s 4s 13 16 mph 1021.2mb 46f 44f
7:50am 2ft 8s 4s 13 16 mph 1020.8mb 46f 43f
6:50am 1.3ft 8s 5s 13 16 mph 1020.7mb 46f 44f
5:50am 1.3ft 8s 6s 13 16 mph 1020.2mb 46f 43f
4:50am 1.6ft 8s 6s 9 11 mph 1019.8mb 46f 44f
3:50am 1.6ft 8s 5s 4 7 mph 1019.4mb 46f 43f
2:50am 1.6ft 8s 5s  -  4 mph 1019.2mb 46f 43f
1:50am 2ft 6s 4s 2 4 mph 1018.9mb 46f 43f
12:50am 2.5ft 8s 4s 2 4 mph 1018.4mb 46f 43f
Thu 05/25 11:50pm 2.5ft 4s 4s 2 4 mph 1017.7mb 46f 43f
10:50pm 3ft 4s 4s 11 16 mph 1017.4mb 46f 43f
9:50pm 3.5ft 5s 4s 16 18 mph 1016.9mb 46f 45f
8:50pm 2.5ft 4s 4s 11 13 mph 1016.7mb 46f 45f
7:50pm 2.5ft 4s 4s 16 18 mph 1016.1mb 46f 45f
6:50pm 2.5ft 8s 4s 16 18 mph 1015.9mb 46f 45f
5:50pm 2.5ft 4s 4s 9 9 mph 1016mb 46f 45f
4:50pm 2.5ft 9s 4s 18 20 mph 1015.6mb 46f 45f
3:50pm 2.5ft 10s 4s 16 18 mph 1015.7mb 46f 45f
2:50pm 2.5ft 8s 4s 11 16 mph 1015.8mb 46f 45f
1:50pm 2ft 9s 4s 20 22 mph 1015.7mb 46f 45f
12:50pm 2.5ft 10s 4s 18 20 mph 1015.7mb 46f 45f
11:50am 2.5ft 9s 4s 18 20 mph 1015.8mb 46f 45f
10:50am 2.5ft 8s 5s 16 18 mph 1016.1mb 46f 45f
9:50am 2.5ft 8s 4s 16 18 mph 1016.5mb 46f 45f
8:50am 2.5ft 10s 5s 13 18 mph 1016.6mb 46f 45f
7:50am 2.5ft 9s 5s 13 16 mph 1016.9mb 46f 45f
6:50am 3ft 8s 5s 13 16 mph 1016.8mb 45f 45f
5:50am 3ft 11s 5s 11 16 mph 1016.8mb 45f 45f
4:50am 2.5ft 9s 5s 9 11 mph 1017.2mb 45f 45f
3:50am 2.5ft 9s 4s 9 13 mph 1017.1mb 45f 45f
2:50am 3ft 9s 4s 13 18 mph 1017.2mb 45f 45f
1:50am 2.5ft 9s 4s 9 11 mph 1017.3mb 45f 45f
12:50am 2.5ft 9s 4s 7 7 mph 1017.2mb 45f 45f